createdAt,value
2018-07-28T00:01:38.535Z,21.50
2018-07-28T00:04:07.998Z,21.50
2018-07-28T00:06:37.231Z,21.50
2018-07-28T00:09:10.016Z,21.40
2018-07-28T00:11:39.623Z,21.30
2018-07-28T00:14:09.250Z,21.30
2018-07-28T00:16:38.543Z,21.30
2018-07-28T00:19:07.871Z,21.20
2018-07-28T00:21:37.182Z,21.20
2018-07-28T00:24:06.528Z,21.10
2018-07-28T00:26:35.854Z,21.10
2018-07-28T00:29:05.236Z,21.10
2018-07-28T00:31:34.535Z,21.00
2018-07-28T00:34:03.810Z,21.00
2018-07-28T00:36:33.154Z,21.00
2018-07-28T00:39:02.422Z,20.90
2018-07-28T00:41:31.762Z,20.90
2018-07-28T00:48:59.250Z,20.80
2018-07-28T00:51:28.544Z,20.70
2018-07-28T00:53:57.841Z,20.70
2018-07-28T00:56:27.272Z,20.70
2018-07-28T00:58:56.754Z,20.70
2018-07-28T01:01:26.109Z,20.70
2018-07-28T01:03:55.494Z,20.70
2018-07-28T01:06:24.797Z,20.60
2018-07-28T01:08:54.121Z,20.60
2018-07-28T01:11:23.452Z,20.70
2018-07-28T01:13:52.995Z,20.70
2018-07-28T01:16:22.280Z,20.70
2018-07-28T01:18:51.622Z,20.80
2018-07-28T01:21:20.945Z,20.80
2018-07-28T01:23:50.276Z,20.90
2018-07-28T01:26:19.577Z,20.90
2018-07-28T01:28:53.018Z,21.00
2018-07-28T01:31:22.383Z,21.10
2018-07-28T01:33:51.717Z,21.10
2018-07-28T01:36:21.225Z,21.20
2018-07-28T01:38:50.578Z,21.20
2018-07-28T01:41:20.208Z,21.20
2018-07-28T01:43:49.594Z,21.30
2018-07-28T01:46:19.064Z,21.30
2018-07-28T01:48:48.395Z,21.30
2018-07-28T01:51:17.725Z,21.30
2018-07-28T01:53:47.059Z,21.20
2018-07-28T01:56:16.352Z,21.20
2018-07-28T01:58:45.656Z,21.10
2018-07-28T02:01:15.025Z,21.10
2018-07-28T02:03:44.351Z,21.00
2018-07-28T02:06:13.688Z,21.00
2018-07-28T02:08:43.046Z,21.10
2018-07-28T02:11:12.388Z,21.20
2018-07-28T02:13:42.125Z,21.20
2018-07-28T02:16:12.133Z,21.20
2018-07-28T02:18:41.481Z,21.20
2018-07-28T02:21:10.826Z,21.20
2018-07-28T02:23:40.173Z,21.20
2018-07-28T02:26:09.480Z,21.20
2018-07-28T02:28:38.930Z,21.20
2018-07-28T02:31:08.249Z,21.20
2018-07-28T02:33:37.528Z,21.10
2018-07-28T02:36:07.084Z,21.00
2018-07-28T02:38:36.383Z,20.90
2018-07-28T02:41:05.689Z,20.90
2018-07-28T02:43:35.003Z,20.90
2018-07-28T02:46:04.315Z,20.80
2018-07-28T02:48:33.657Z,20.80
2018-07-28T02:51:02.999Z,20.80
2018-07-28T02:53:32.311Z,20.70
2018-07-28T02:56:01.621Z,20.70
2018-07-28T02:58:30.940Z,20.70
2018-07-28T03:01:00.369Z,20.70
2018-07-28T03:03:29.714Z,20.70
2018-07-28T03:05:59.006Z,20.70
2018-07-28T03:08:29.062Z,20.70
2018-07-28T03:10:58.394Z,20.60
2018-07-28T03:13:27.731Z,20.50
2018-07-28T03:15:57.069Z,20.50
2018-07-28T03:18:26.470Z,20.40
2018-07-28T03:20:56.049Z,20.40
2018-07-28T03:23:25.349Z,20.30
2018-07-28T03:25:54.708Z,20.30
2018-07-28T03:28:24.101Z,20.40
2018-07-28T03:30:53.378Z,20.40
2018-07-28T03:33:22.777Z,20.50
2018-07-28T03:35:52.101Z,20.40
2018-07-28T03:38:21.476Z,20.40
2018-07-28T03:40:50.802Z,20.40
2018-07-28T03:43:20.231Z,20.40
2018-07-28T03:48:18.635Z,20.40
2018-07-28T03:50:48.023Z,20.30
2018-07-28T03:53:17.285Z,20.30
2018-07-28T03:55:46.569Z,20.20
2018-07-28T03:58:15.862Z,20.20
2018-07-28T04:00:45.147Z,20.10
2018-07-28T04:03:14.396Z,20.10
2018-07-28T04:05:43.731Z,20.20
2018-07-28T04:08:12.975Z,20.20
2018-07-28T04:10:42.290Z,20.30
2018-07-28T04:13:11.559Z,20.50
2018-07-28T04:15:40.854Z,20.50
2018-07-28T04:18:10.138Z,20.50
2018-07-28T04:20:39.393Z,20.50
2018-07-28T04:23:08.629Z,20.60
2018-07-28T04:25:37.906Z,20.60
2018-07-28T04:28:07.170Z,20.60
2018-07-28T04:30:36.505Z,20.60
2018-07-28T04:33:06.395Z,20.70
2018-07-28T04:35:35.656Z,20.80
2018-07-28T04:38:04.913Z,20.90
2018-07-28T04:40:34.198Z,21.00
2018-07-28T04:43:03.449Z,21.10
2018-07-28T04:45:32.704Z,21.10
2018-07-28T04:48:01.953Z,21.10
2018-07-28T04:50:31.185Z,21.20
2018-07-28T04:53:00.401Z,21.30
2018-07-28T04:57:58.894Z,21.40
2018-07-28T05:00:28.165Z,21.50
2018-07-28T05:02:57.455Z,21.70
2018-07-28T05:05:26.781Z,21.80
2018-07-28T05:07:56.083Z,22.00
2018-07-28T05:10:25.341Z,22.20
2018-07-28T05:12:54.665Z,22.40
2018-07-28T05:15:23.916Z,23.00
2018-07-28T05:17:53.227Z,24.40
2018-07-28T05:20:22.536Z,26.10
2018-07-28T05:22:51.778Z,27.60
2018-07-28T05:25:21.084Z,28.90
2018-07-28T05:27:50.363Z,29.70
2018-07-28T05:30:19.635Z,30.30
2018-07-28T05:32:48.992Z,30.90
2018-07-28T05:35:18.280Z,31.10
2018-07-28T05:37:47.492Z,30.50
2018-07-28T05:42:45.797Z,28.40
2018-07-28T05:45:15.082Z,27.60
2018-07-28T05:47:44.386Z,27.40
2018-07-28T05:50:13.727Z,27.80
2018-07-28T05:52:42.947Z,28.30
2018-07-28T05:55:12.287Z,29.00
2018-07-28T05:57:41.693Z,29.70
2018-07-28T06:00:10.945Z,30.40
2018-07-28T06:02:40.357Z,30.90
2018-07-28T06:05:09.730Z,31.30
2018-07-28T06:07:39.036Z,31.80
2018-07-28T06:10:08.443Z,32.60
2018-07-28T06:12:37.754Z,33.10
2018-07-28T06:15:07.360Z,33.20
2018-07-28T06:17:36.777Z,33.50
2018-07-28T06:20:07.826Z,34.00
2018-07-28T06:22:37.679Z,34.20
2018-07-28T06:25:08.332Z,34.50
2018-07-28T06:27:37.682Z,35.20
2018-07-28T06:30:08.524Z,35.00
2018-07-28T06:32:37.987Z,35.20
2018-07-28T06:35:07.397Z,34.80
2018-07-28T06:37:37.290Z,34.10
2018-07-28T06:40:07.461Z,33.40
2018-07-28T06:42:36.802Z,32.20
2018-07-28T06:45:06.742Z,31.30
2018-07-28T06:47:36.089Z,30.50
2018-07-28T06:50:05.526Z,29.80
2018-07-28T06:52:34.898Z,29.40
2018-07-28T06:55:04.226Z,29.00
2018-07-28T07:00:02.699Z,28.80
2018-07-28T07:02:31.992Z,28.50
2018-07-28T07:05:01.275Z,28.10
2018-07-28T07:07:30.634Z,27.60
2018-07-28T07:10:00.016Z,27.40
2018-07-28T07:12:29.457Z,27.30
2018-07-28T07:14:58.970Z,27.20
2018-07-28T07:17:28.330Z,27.10
2018-07-28T07:19:57.659Z,26.90
2018-07-28T07:22:27.002Z,26.80
2018-07-28T07:24:56.319Z,26.80
2018-07-28T07:27:25.672Z,26.60
2018-07-28T07:29:54.971Z,26.60
2018-07-28T07:32:24.532Z,26.50
2018-07-28T07:34:53.842Z,26.50
2018-07-28T07:37:23.273Z,26.40
2018-07-28T07:39:52.624Z,26.50
2018-07-28T07:42:22.017Z,26.50
2018-07-28T07:44:51.371Z,26.60
2018-07-28T07:47:20.829Z,26.80
2018-07-28T07:49:50.257Z,27.10
2018-07-28T07:52:19.624Z,27.10
2018-07-28T07:54:48.950Z,27.10
2018-07-28T07:57:18.305Z,26.90
2018-07-28T07:59:47.646Z,26.80
2018-07-28T08:02:16.942Z,26.80
2018-07-28T08:04:46.297Z,26.50
2018-07-28T08:07:15.542Z,26.40
2018-07-28T08:09:44.889Z,26.30
2018-07-28T08:12:14.201Z,26.30
2018-07-28T08:14:43.507Z,26.20
2018-07-28T08:17:12.809Z,26.10
2018-07-28T08:19:42.443Z,26.10
2018-07-28T08:24:40.809Z,26.10
2018-07-28T08:27:10.090Z,26.10
2018-07-28T08:29:39.407Z,26.10
2018-07-28T08:32:08.662Z,26.10
2018-07-28T08:34:38.243Z,26.10
2018-07-28T08:37:07.522Z,26.00
2018-07-28T08:39:36.831Z,25.90
2018-07-28T08:42:06.155Z,25.90
2018-07-28T08:44:35.521Z,25.90
2018-07-28T08:47:04.842Z,26.10
2018-07-28T08:49:34.145Z,26.40
2018-07-28T08:52:03.481Z,26.40
2018-07-28T08:54:32.971Z,26.60
2018-07-28T08:57:02.479Z,26.70
2018-07-28T08:59:31.795Z,26.90
2018-07-28T09:02:01.113Z,27.00
2018-07-28T09:04:31.201Z,27.00
2018-07-28T09:07:00.577Z,27.10
2018-07-28T09:09:30.497Z,27.20
2018-07-28T09:11:59.797Z,27.20
2018-07-28T09:14:30.880Z,27.20
2018-07-28T09:17:00.158Z,27.50
2018-07-28T09:19:30.104Z,27.80
2018-07-28T09:21:59.441Z,28.20
2018-07-28T09:24:29.014Z,28.50
2018-07-28T09:26:58.320Z,28.80
2018-07-28T09:29:27.588Z,28.70
2018-07-28T09:31:57.025Z,28.70
2018-07-28T09:34:26.418Z,28.70
2018-07-28T09:36:55.736Z,28.80
2018-07-28T09:39:24.962Z,28.90
2018-07-28T09:41:54.603Z,28.90
2018-07-28T09:44:23.870Z,29.00
2018-07-28T09:46:53.281Z,28.60
2018-07-28T09:49:22.541Z,28.30
2018-07-28T09:51:51.811Z,28.00
2018-07-28T09:54:21.098Z,27.80
2018-07-28T09:56:50.374Z,27.80
2018-07-28T10:01:48.806Z,27.60
2018-07-28T10:04:18.185Z,27.80
2018-07-28T10:06:47.563Z,28.10
2018-07-28T10:09:16.930Z,28.40
2018-07-28T10:11:46.310Z,28.30
2018-07-28T10:14:15.779Z,28.40
2018-07-28T10:16:45.131Z,28.30
2018-07-28T10:19:14.527Z,28.50
2018-07-28T10:22:46.882Z,28.70
2018-07-28T10:25:16.229Z,28.80
2018-07-28T10:27:45.639Z,28.90
2018-07-28T10:30:15.090Z,29.20
2018-07-28T10:32:44.453Z,29.60
2018-07-28T10:35:13.855Z,29.90
2018-07-28T10:37:43.221Z,30.30
2018-07-28T10:40:12.645Z,30.20
2018-07-28T10:42:41.938Z,30.10
2018-07-28T10:45:11.353Z,29.90
2018-07-28T10:47:45.920Z,30.10
2018-07-28T10:50:15.293Z,30.50
2018-07-28T10:52:44.798Z,30.80
2018-07-28T10:55:14.126Z,30.60
2018-07-28T10:57:43.513Z,30.40
2018-07-28T11:00:13.023Z,30.20
2018-07-28T11:02:42.587Z,29.90
2018-07-28T11:05:12.166Z,29.80
2018-07-28T11:07:42.122Z,29.70
2018-07-28T11:10:11.623Z,30.10
2018-07-28T11:12:41.293Z,30.40
2018-07-28T11:15:11.003Z,30.50
2018-07-28T11:17:40.532Z,30.20
2018-07-28T11:20:11.027Z,30.10
2018-07-28T11:22:40.898Z,30.00
2018-07-28T11:25:10.300Z,30.20
2018-07-28T11:27:39.760Z,30.50
2018-07-28T11:30:09.679Z,30.50
2018-07-28T11:32:56.035Z,30.40
2018-07-28T11:35:42.483Z,30.40
2018-07-28T11:38:33.674Z,30.40
2018-07-28T11:41:19.858Z,31.00
2018-07-28T11:44:06.194Z,31.60
2018-07-28T11:46:35.555Z,31.90
2018-07-28T11:49:04.946Z,31.70
2018-07-28T11:54:03.466Z,30.90
2018-07-28T11:56:32.866Z,30.60
2018-07-28T11:59:02.256Z,30.70
2018-07-28T12:01:31.541Z,30.60
2018-07-28T12:04:00.931Z,30.90
2018-07-28T12:06:30.281Z,31.10
2018-07-28T12:08:59.662Z,31.40
2018-07-28T12:11:28.978Z,31.60
2018-07-28T12:13:58.319Z,31.90
2018-07-28T12:16:27.670Z,32.20
2018-07-28T12:18:57.030Z,32.30
2018-07-28T12:21:26.359Z,32.30
2018-07-28T12:23:56.760Z,32.00
2018-07-28T12:26:26.581Z,32.00
2018-07-28T12:28:56.018Z,31.80
2018-07-28T12:31:25.462Z,31.30
2018-07-28T12:33:54.768Z,31.00
2018-07-28T12:36:24.082Z,30.60
2018-07-28T12:38:53.515Z,30.00
2018-07-28T12:41:22.973Z,29.70
2018-07-28T12:43:52.191Z,29.50
2018-07-28T12:48:50.587Z,28.70
2018-07-28T12:51:19.921Z,28.00
2018-07-28T12:53:49.393Z,27.20
2018-07-28T12:56:19.389Z,26.30
2018-07-28T12:58:49.005Z,25.70
2018-07-28T13:03:47.467Z,24.50
2018-07-28T13:06:16.907Z,24.10
2018-07-28T13:08:46.207Z,23.90
2018-07-28T13:11:15.548Z,23.80
2018-07-28T13:13:44.784Z,23.60
2018-07-28T13:16:14.107Z,23.50
2018-07-28T13:18:43.366Z,23.40
2018-07-28T13:21:12.678Z,23.50
2018-07-28T13:23:41.974Z,23.40
2018-07-28T13:26:11.227Z,23.50
2018-07-28T13:28:40.650Z,23.70
2018-07-28T13:31:10.095Z,24.00
2018-07-28T13:33:39.446Z,24.40
2018-07-28T13:36:08.781Z,24.90
2018-07-28T13:38:38.143Z,25.20
2018-07-28T13:41:07.400Z,25.50
2018-07-28T13:43:36.698Z,25.50
2018-07-28T13:46:06.043Z,25.70
2018-07-28T13:48:35.283Z,25.80
2018-07-28T13:51:04.735Z,26.10
2018-07-28T13:53:34.022Z,26.40
2018-07-28T13:56:03.402Z,26.70
2018-07-28T13:58:32.752Z,26.80
2018-07-28T14:01:02.033Z,26.80
2018-07-28T14:03:31.320Z,26.70
2018-07-28T14:06:00.679Z,26.70
2018-07-28T14:08:30.009Z,26.50
2018-07-28T14:10:59.342Z,26.60
2018-07-28T14:13:28.719Z,26.70
2018-07-28T14:15:58.069Z,27.10
2018-07-28T14:18:27.438Z,27.30
2018-07-28T14:20:56.985Z,27.50
2018-07-28T14:23:26.240Z,27.30
2018-07-28T14:25:55.537Z,27.20
2018-07-28T14:28:24.781Z,27.20
2018-07-28T14:30:54.459Z,27.10
2018-07-28T14:33:23.947Z,27.10
2018-07-28T14:35:53.662Z,27.00
2018-07-28T14:38:22.965Z,26.90
2018-07-28T14:40:52.317Z,26.80
2018-07-28T14:43:21.661Z,26.80
2018-07-28T14:45:50.993Z,26.70
2018-07-28T14:48:20.271Z,26.70
2018-07-28T14:50:49.553Z,26.80
2018-07-28T14:53:18.827Z,26.70
2018-07-28T14:55:48.123Z,26.70
2018-07-28T14:58:17.412Z,26.80
2018-07-28T15:00:46.713Z,26.90
2018-07-28T15:03:16.043Z,27.10
2018-07-28T15:05:45.362Z,27.20
2018-07-28T15:08:14.618Z,27.50
2018-07-28T15:10:43.958Z,27.70
2018-07-28T15:13:13.279Z,27.60
2018-07-28T15:15:42.659Z,27.70
2018-07-28T15:18:11.925Z,27.60
2018-07-28T15:20:41.192Z,27.60
2018-07-28T15:23:10.532Z,27.60
2018-07-28T15:25:39.867Z,27.90
2018-07-28T15:28:09.140Z,28.00
2018-07-28T15:30:38.463Z,28.10
2018-07-28T15:33:07.760Z,27.80
2018-07-28T15:35:37.056Z,27.60
2018-07-28T15:38:06.378Z,27.40
2018-07-28T15:40:35.606Z,27.30
2018-07-28T15:43:05.177Z,27.30
2018-07-28T15:45:34.538Z,27.30
2018-07-28T15:48:04.200Z,27.20
2018-07-28T15:50:33.486Z,27.10
2018-07-28T15:53:02.887Z,27.00
2018-07-28T15:55:32.137Z,27.00
2018-07-28T15:58:01.451Z,26.90
2018-07-28T16:00:30.718Z,26.90
2018-07-28T16:05:28.990Z,26.80
2018-07-28T16:07:58.270Z,26.60
2018-07-28T16:10:27.517Z,26.50
2018-07-28T16:12:56.803Z,26.30
2018-07-28T16:15:26.110Z,26.20
2018-07-28T16:17:55.424Z,26.10
2018-07-28T16:20:24.765Z,26.10
2018-07-28T16:22:54.145Z,26.00
2018-07-28T16:25:23.464Z,25.90
2018-07-28T16:27:52.807Z,25.90
2018-07-28T16:30:22.023Z,25.80
2018-07-28T16:32:51.295Z,25.70
2018-07-28T16:35:20.590Z,25.70
2018-07-28T16:37:49.865Z,25.70
2018-07-28T16:40:19.132Z,25.70
2018-07-28T16:45:17.440Z,25.60
2018-07-28T16:47:46.799Z,25.60
2018-07-28T16:50:16.011Z,25.60
2018-07-28T16:52:45.215Z,25.60
2018-07-28T16:55:14.625Z,25.60
2018-07-28T16:57:43.898Z,25.60
2018-07-28T17:00:13.274Z,25.60
2018-07-28T17:02:42.662Z,25.60
2018-07-28T17:05:12.150Z,25.60
2018-07-28T17:07:41.482Z,25.60
2018-07-28T17:12:39.932Z,25.60
2018-07-28T17:15:10.314Z,25.60
2018-07-28T17:17:39.634Z,25.60
2018-07-28T17:20:09.222Z,25.60
2018-07-28T17:22:38.648Z,25.60
2018-07-28T17:25:07.898Z,25.70
2018-07-28T17:27:37.250Z,25.70
2018-07-28T17:30:06.753Z,25.80
2018-07-28T17:32:36.152Z,25.70
2018-07-28T17:35:05.610Z,25.70
2018-07-28T17:37:34.930Z,25.60
2018-07-28T17:40:04.326Z,25.50
2018-07-28T17:42:33.779Z,25.40
2018-07-28T17:45:03.099Z,25.30
2018-07-28T17:47:32.374Z,25.20
2018-07-28T17:50:01.707Z,25.20
2018-07-28T17:52:31.037Z,25.10
2018-07-28T17:55:00.403Z,25.10
2018-07-28T17:57:29.732Z,25.00
2018-07-28T17:59:59.171Z,24.90
2018-07-28T18:04:57.573Z,24.80
2018-07-28T18:07:26.887Z,24.70
2018-07-28T18:09:56.246Z,24.60
2018-07-28T18:12:25.511Z,24.60
2018-07-28T18:14:54.857Z,24.60
2018-07-28T18:17:24.127Z,24.50
2018-07-28T18:19:53.433Z,24.50
2018-07-28T18:22:23.134Z,24.40
2018-07-28T18:24:52.553Z,24.40
2018-07-28T18:27:22.046Z,24.40
2018-07-28T18:29:51.627Z,24.40
2018-07-28T18:32:20.966Z,24.30
2018-07-28T18:34:50.636Z,24.30
2018-07-28T18:37:20.042Z,24.30
2018-07-28T18:39:49.323Z,24.20
2018-07-28T18:42:18.630Z,24.20
2018-07-28T18:44:47.975Z,24.10
2018-07-28T18:47:17.421Z,24.10
2018-07-28T18:49:49.206Z,24.00
2018-07-28T18:52:18.486Z,24.00
2018-07-28T18:54:48.556Z,23.90
2018-07-28T18:57:17.915Z,23.90
2018-07-28T18:59:47.231Z,23.80
2018-07-28T19:02:16.699Z,23.80
2018-07-28T19:04:46.253Z,23.80
2018-07-28T19:07:18.584Z,23.70
2018-07-28T19:09:52.218Z,23.70
2018-07-28T19:12:26.958Z,23.70
2018-07-28T19:14:56.326Z,23.60
2018-07-28T19:17:29.714Z,23.60
2018-07-28T19:19:59.034Z,23.50
2018-07-28T19:22:33.679Z,23.40
2018-07-28T19:25:03.006Z,23.30
2018-07-28T19:27:32.408Z,23.30
2018-07-28T19:30:01.697Z,23.20
2018-07-28T19:32:31.026Z,23.20
2018-07-28T19:35:00.252Z,23.10
2018-07-28T19:39:59.247Z,22.90
2018-07-28T19:42:33.862Z,22.90
2018-07-28T19:45:03.203Z,22.80
2018-07-28T19:47:32.564Z,22.80
2018-07-28T19:50:01.874Z,22.70
2018-07-28T19:52:31.267Z,22.70
2018-07-28T19:55:02.058Z,22.70
2018-07-28T19:57:33.369Z,22.60
2018-07-28T20:00:05.138Z,22.60
2018-07-28T20:03:34.557Z,22.50
2018-07-28T20:09:45.267Z,22.40
2018-07-28T20:12:15.560Z,22.30
2018-07-28T20:14:48.017Z,22.30
2018-07-28T20:17:18.705Z,22.30
2018-07-28T20:19:50.075Z,22.20
2018-07-28T20:22:21.186Z,22.20
2018-07-28T20:24:52.877Z,22.10
2018-07-28T20:27:24.173Z,22.00
2018-07-28T20:29:56.114Z,21.90
2018-07-28T20:32:27.387Z,21.90
2018-07-28T20:34:58.565Z,21.80
2018-07-28T20:37:29.029Z,21.80
2018-07-28T20:39:59.611Z,21.80
2018-07-28T20:42:30.050Z,21.80
2018-07-28T20:45:00.358Z,21.80
2018-07-28T20:47:30.817Z,21.70
2018-07-28T20:50:01.585Z,21.70
2018-07-28T20:52:32.741Z,21.70
2018-07-28T20:57:35.531Z,21.60
2018-07-28T21:00:09.026Z,21.60
2018-07-28T21:02:39.731Z,21.60
2018-07-28T21:05:11.572Z,21.60
2018-07-28T21:10:14.022Z,21.60
2018-07-28T21:12:45.923Z,21.60
2018-07-28T21:15:15.332Z,21.60
2018-07-28T21:17:44.678Z,21.60
2018-07-28T21:20:14.045Z,21.60
2018-07-28T21:22:43.461Z,21.50
2018-07-28T21:25:12.834Z,21.50
2018-07-28T21:27:42.138Z,21.50
2018-07-28T21:30:11.509Z,21.50
2018-07-28T21:32:41.034Z,21.50
2018-07-28T21:35:10.443Z,21.50
2018-07-28T21:37:39.838Z,21.50
2018-07-28T21:40:10.098Z,21.50
2018-07-28T21:42:39.467Z,21.50
2018-07-28T21:45:08.788Z,21.50
2018-07-28T21:47:38.895Z,21.50
2018-07-28T21:50:08.350Z,21.50
2018-07-28T21:52:37.673Z,21.50
2018-07-28T21:55:07.139Z,21.40
2018-07-28T21:57:36.414Z,21.30
2018-07-28T22:00:08.711Z,21.30
2018-07-28T22:02:38.006Z,21.20
2018-07-28T22:05:07.512Z,21.20
2018-07-28T22:07:36.858Z,21.30
2018-07-28T22:10:06.252Z,21.40
2018-07-28T22:12:36.221Z,21.40
2018-07-28T22:15:05.959Z,21.40
2018-07-28T22:17:36.096Z,21.40
2018-07-28T22:20:05.939Z,21.40
2018-07-28T22:22:35.849Z,21.40
2018-07-28T22:25:05.156Z,21.30
2018-07-28T22:27:34.590Z,21.40
2018-07-28T22:30:03.949Z,21.40
2018-07-28T22:32:33.319Z,21.40
2018-07-28T22:35:02.681Z,21.40
2018-07-28T22:37:31.953Z,21.40
2018-07-28T22:40:01.461Z,21.50
2018-07-28T22:42:45.511Z,21.50
2018-07-28T22:45:14.791Z,21.50
2018-07-28T22:47:44.316Z,21.50
2018-07-28T22:50:13.612Z,21.50
2018-07-28T22:52:43.247Z,21.50
2018-07-28T22:55:12.630Z,21.60
2018-07-28T22:57:41.986Z,21.60
2018-07-28T23:00:11.280Z,21.70
2018-07-28T23:02:40.876Z,21.70
2018-07-28T23:05:10.166Z,21.70
2018-07-28T23:07:39.664Z,21.60
2018-07-28T23:10:08.992Z,21.60
2018-07-28T23:12:38.410Z,21.50
2018-07-28T23:15:07.801Z,21.40
2018-07-28T23:17:37.046Z,21.30
2018-07-28T23:20:06.461Z,21.30
2018-07-28T23:22:35.866Z,21.20
2018-07-28T23:25:06.001Z,21.10
2018-07-28T23:30:07.242Z,21.00
2018-07-28T23:32:36.867Z,20.90
2018-07-28T23:35:06.480Z,20.80
2018-07-28T23:37:35.847Z,20.70
2018-07-28T23:40:05.562Z,20.60
2018-07-28T23:42:34.962Z,20.50
2018-07-28T23:45:04.707Z,20.40
2018-07-28T23:47:33.987Z,20.40
2018-07-28T23:50:03.226Z,20.30
2018-07-28T23:52:32.495Z,20.30
2018-07-28T23:55:01.759Z,20.20
2018-07-28T23:57:31.058Z,20.20
